sensor_id;sensor_type;location;lat;lon;timestamp;temperature;humidity
2212;DHT22;48849;48.758;9.158;2023-03-05T00:01:14;6.80;99.90
2212;DHT22;48849;48.758;9.158;2023-03-05T00:03:42;6.80;99.90
2212;DHT22;48849;48.758;9.158;2023-03-05T00:06:09;6.80;99.90
2212;DHT22;48849;48.758;9.158;2023-03-05T00:08:36;6.80;99.90
2212;DHT22;48849;48.758;9.158;2023-03-05T00:11:05;6.80;99.90
2212;DHT22;48849;48.758;9.158;2023-03-05T00:13:35;6.70;99.90
2212;DHT22;48849;48.758;9.158;2023-03-05T00:16:02;6.70;99.90
2212;DHT22;48849;48.758;9.158;2023-03-05T00:18:29;6.70;99.90
2212;DHT22;48849;48.758;9.158;2023-03-05T00:20:56;6.70;99.90
2212;DHT22;48849;48.758;9.158;2023-03-05T00:23:23;6.70;99.90
2212;DHT22;48849;48.758;9.158;2023-03-05T00:25:49;6.70;99.90
2212;DHT22;48849;48.758;9.158;2023-03-05T00:28:16;6.80;99.90
2212;DHT22;48849;48.758;9.158;2023-03-05T00:30:45;6.80;99.90
2212;DHT22;48849;48.758;9.158;2023-03-05T00:33:12;6.70;99.90
2212;DHT22;48849;48.758;9.158;2023-03-05T00:35:39;6.70;99.90
2212;DHT22;48849;48.758;9.158;2023-03-05T00:38:06;6.60;99.90
2212;DHT22;48849;48.758;9.158;2023-03-05T00:40:34;6.60;99.90
2212;DHT22;48849;48.758;9.158;2023-03-05T00:43:01;6.60;99.90
2212;DHT22;48849;48.758;9.158;2023-03-05T00:45:28;6.60;99.90
2212;DHT22;48849;48.758;9.158;2023-03-05T00:47:56;6.60;99.90
2212;DHT22;48849;48.758;9.158;2023-03-05T00:50:23;6.60;99.90
2212;DHT22;48849;48.758;9.158;2023-03-05T00:52:50;6.60;99.90
2212;DHT22;48849;48.758;9.158;2023-03-05T00:55:17;6.60;99.90
2212;DHT22;48849;48.758;9.158;2023-03-05T00:57:44;6.70;99.90
2212;DHT22;48849;48.758;9.158;2023-03-05T01:00:12;6.70;99.90
2212;DHT22;48849;48.758;9.158;2023-03-05T01:02:40;6.70;99.90
2212;DHT22;48849;48.758;9.158;2023-03-05T01:05:10;6.70;99.90
2212;DHT22;48849;48.758;9.158;2023-03-05T01:07:36;6.70;99.90
2212;DHT22;48849;48.758;9.158;2023-03-05T01:10:04;6.70;99.90
2212;DHT22;48849;48.758;9.158;2023-03-05T01:12:31;6.60;99.90
2212;DHT22;48849;48.758;9.158;2023-03-05T01:14:58;6.60;99.90
2212;DHT22;48849;48.758;9.158;2023-03-05T01:17:26;6.60;99.90
2212;DHT22;48849;48.758;9.158;2023-03-05T01:19:52;6.60;99.90
2212;DHT22;48849;48.758;9.158;2023-03-05T01:22:20;6.70;99.90
2212;DHT22;48849;48.758;9.158;2023-03-05T01:24:47;6.70;99.90
2212;DHT22;48849;48.758;9.158;2023-03-05T01:27:14;6.70;99.90
2212;DHT22;48849;48.758;9.158;2023-03-05T01:29:40;6.60;99.90
2212;DHT22;48849;48.758;9.158;2023-03-05T01:32:07;6.60;99.90
2212;DHT22;48849;48.758;9.158;2023-03-05T01:34:35;6.60;99.90
2212;DHT22;48849;48.758;9.158;2023-03-05T01:37:02;6.60;99.90
2212;DHT22;48849;48.758;9.158;2023-03-05T01:39:30;6.70;99.90
2212;DHT22;48849;48.758;9.158;2023-03-05T01:41:57;6.60;99.90
2212;DHT22;48849;48.758;9.158;2023-03-05T01:44:28;6.60;99.90
2212;DHT22;48849;48.758;9.158;2023-03-05T01:46:55;6.70;99.90
2212;DHT22;48849;48.758;9.158;2023-03-05T01:49:23;6.70;99.90
2212;DHT22;48849;48.758;9.158;2023-03-05T01:51:58;6.70;99.90
2212;DHT22;48849;48.758;9.158;2023-03-05T01:54:30;6.70;99.90
2212;DHT22;48849;48.758;9.158;2023-03-05T01:57:01;6.70;99.90
2212;DHT22;48849;48.758;9.158;2023-03-05T01:59:30;6.60;99.90
2212;DHT22;48849;48.758;9.158;2023-03-05T02:01:57;6.60;99.90
2212;DHT22;48849;48.758;9.158;2023-03-05T02:04:30;6.60;99.90
2212;DHT22;48849;48.758;9.158;2023-03-05T02:06:58;6.70;99.90
2212;DHT22;48849;48.758;9.158;2023-03-05T02:09:26;6.60;99.90
2212;DHT22;48849;48.758;9.158;2023-03-05T02:11:55;6.70;99.90
2212;DHT22;48849;48.758;9.158;2023-03-05T02:14:21;6.60;99.90
2212;DHT22;48849;48.758;9.158;2023-03-05T02:16:49;6.60;99.90
2212;DHT22;48849;48.758;9.158;2023-03-05T02:19:15;6.60;99.90
2212;DHT22;48849;48.758;9.158;2023-03-05T02:21:46;6.60;99.90
2212;DHT22;48849;48.758;9.158;2023-03-05T02:24:15;6.70;99.90
2212;DHT22;48849;48.758;9.158;2023-03-05T02:26:43;6.60;99.90
2212;DHT22;48849;48.758;9.158;2023-03-05T02:29:13;6.60;99.90
2212;DHT22;48849;48.758;9.158;2023-03-05T02:31:41;6.60;99.90
2212;DHT22;48849;48.758;9.158;2023-03-05T02:34:08;6.60;99.90
2212;DHT22;48849;48.758;9.158;2023-03-05T02:36:35;6.60;99.90
2212;DHT22;48849;48.758;9.158;2023-03-05T02:39:03;6.60;99.90
2212;DHT22;48849;48.758;9.158;2023-03-05T02:41:30;6.60;99.90
2212;DHT22;48849;48.758;9.158;2023-03-05T02:43:57;6.70;99.90
2212;DHT22;48849;48.758;9.158;2023-03-05T02:46:23;6.60;99.90
2212;DHT22;48849;48.758;9.158;2023-03-05T02:48:50;6.60;99.90
2212;DHT22;48849;48.758;9.158;2023-03-05T02:51:18;6.60;99.90
2212;DHT22;48849;48.758;9.158;2023-03-05T02:53:44;6.70;99.90
2212;DHT22;48849;48.758;9.158;2023-03-05T02:56:12;6.70;99.90
2212;DHT22;48849;48.758;9.158;2023-03-05T02:58:39;6.60;99.90
2212;DHT22;48849;48.758;9.158;2023-03-05T03:01:07;6.60;99.90
2212;DHT22;48849;48.758;9.158;2023-03-05T03:03:34;6.60;99.90
2212;DHT22;48849;48.758;9.158;2023-03-05T03:06:00;6.60;99.90
2212;DHT22;48849;48.758;9.158;2023-03-05T03:08:27;6.60;99.90
2212;DHT22;48849;48.758;9.158;2023-03-05T03:10:54;6.60;99.90
2212;DHT22;48849;48.758;9.158;2023-03-05T03:13:22;6.60;99.90
2212;DHT22;48849;48.758;9.158;2023-03-05T03:15:49;6.60;99.90
2212;DHT22;48849;48.758;9.158;2023-03-05T03:18:16;6.70;99.90
2212;DHT22;48849;48.758;9.158;2023-03-05T03:20:43;6.70;99.90
2212;DHT22;48849;48.758;9.158;2023-03-05T03:23:09;6.70;99.90
2212;DHT22;48849;48.758;9.158;2023-03-05T03:25:36;6.70;99.90
2212;DHT22;48849;48.758;9.158;2023-03-05T03:28:03;6.80;99.90
2212;DHT22;48849;48.758;9.158;2023-03-05T03:30:31;6.70;99.90
2212;DHT22;48849;48.758;9.158;2023-03-05T03:32:57;6.80;99.90
2212;DHT22;48849;48.758;9.158;2023-03-05T03:35:24;6.80;99.90
2212;DHT22;48849;48.758;9.158;2023-03-05T03:37:51;6.80;99.90
2212;DHT22;48849;48.758;9.158;2023-03-05T03:40:17;6.80;99.90
2212;DHT22;48849;48.758;9.158;2023-03-05T03:42:44;6.70;99.90
2212;DHT22;48849;48.758;9.158;2023-03-05T03:45:12;6.80;99.90
2212;DHT22;48849;48.758;9.158;2023-03-05T03:47:40;6.80;99.90
2212;DHT22;48849;48.758;9.158;2023-03-05T03:50:08;6.70;99.90
2212;DHT22;48849;48.758;9.158;2023-03-05T03:52:34;6.70;99.90
2212;DHT22;48849;48.758;9.158;2023-03-05T03:55:01;6.70;99.90
2212;DHT22;48849;48.758;9.158;2023-03-05T03:57:28;6.70;99.90
2212;DHT22;48849;48.758;9.158;2023-03-05T03:59:55;6.70;99.90
2212;DHT22;48849;48.758;9.158;2023-03-05T04:02:22;6.70;99.90
2212;DHT22;48849;48.758;9.158;2023-03-05T04:04:50;6.70;99.90
2212;DHT22;48849;48.758;9.158;2023-03-05T04:07:18;6.70;99.90
2212;DHT22;48849;48.758;9.158;2023-03-05T04:09:45;6.70;99.90
2212;DHT22;48849;48.758;9.158;2023-03-05T04:12:11;6.70;99.90
2212;DHT22;48849;48.758;9.158;2023-03-05T04:14:43;6.60;99.90
2212;DHT22;48849;48.758;9.158;2023-03-05T04:17:10;6.70;99.90
2212;DHT22;48849;48.758;9.158;2023-03-05T04:19:37;6.70;99.90
2212;DHT22;48849;48.758;9.158;2023-03-05T04:22:05;6.70;99.90
2212;DHT22;48849;48.758;9.158;2023-03-05T04:24:32;6.70;99.90
2212;DHT22;48849;48.758;9.158;2023-03-05T04:26:59;6.70;99.90
2212;DHT22;48849;48.758;9.158;2023-03-05T04:29:25;6.60;99.90
2212;DHT22;48849;48.758;9.158;2023-03-05T04:31:52;6.60;99.90
2212;DHT22;48849;48.758;9.158;2023-03-05T04:34:19;6.60;99.90
2212;DHT22;48849;48.758;9.158;2023-03-05T04:36:45;6.60;99.90
2212;DHT22;48849;48.758;9.158;2023-03-05T04:39:13;6.70;99.90
2212;DHT22;48849;48.758;9.158;2023-03-05T04:41:40;6.70;99.90
2212;DHT22;48849;48.758;9.158;2023-03-05T04:44:07;6.70;99.90
2212;DHT22;48849;48.758;9.158;2023-03-05T04:46:33;6.70;99.90
2212;DHT22;48849;48.758;9.158;2023-03-05T04:49:00;6.70;99.90
2212;DHT22;48849;48.758;9.158;2023-03-05T04:51:27;6.70;99.90
2212;DHT22;48849;48.758;9.158;2023-03-05T04:53:54;6.70;99.90
2212;DHT22;48849;48.758;9.158;2023-03-05T04:56:22;6.70;99.90
2212;DHT22;48849;48.758;9.158;2023-03-05T04:58:48;6.70;99.90
2212;DHT22;48849;48.758;9.158;2023-03-05T05:01:15;6.70;99.90
2212;DHT22;48849;48.758;9.158;2023-03-05T05:03:42;6.70;99.90
2212;DHT22;48849;48.758;9.158;2023-03-05T05:06:08;6.70;99.90
2212;DHT22;48849;48.758;9.158;2023-03-05T05:08:35;6.70;99.90
2212;DHT22;48849;48.758;9.158;2023-03-05T05:11:04;6.70;99.90
2212;DHT22;48849;48.758;9.158;2023-03-05T05:13:33;6.70;99.90
2212;DHT22;48849;48.758;9.158;2023-03-05T05:16:00;6.70;99.90
2212;DHT22;48849;48.758;9.158;2023-03-05T05:18:27;6.70;99.90
2212;DHT22;48849;48.758;9.158;2023-03-05T05:20:53;6.80;99.90
2212;DHT22;48849;48.758;9.158;2023-03-05T05:23:20;6.70;99.90
2212;DHT22;48849;48.758;9.158;2023-03-05T05:25:55;6.80;99.90
2212;DHT22;48849;48.758;9.158;2023-03-05T05:28:21;6.80;99.90
2212;DHT22;48849;48.758;9.158;2023-03-05T05:30:49;6.80;99.90
2212;DHT22;48849;48.758;9.158;2023-03-05T05:33:16;6.80;99.90
2212;DHT22;48849;48.758;9.158;2023-03-05T05:35:43;6.70;99.90
2212;DHT22;48849;48.758;9.158;2023-03-05T05:38:10;6.80;99.90
2212;DHT22;48849;48.758;9.158;2023-03-05T05:40:36;6.70;99.90
2212;DHT22;48849;48.758;9.158;2023-03-05T05:43:03;6.70;99.90
2212;DHT22;48849;48.758;9.158;2023-03-05T05:45:30;6.70;99.90
2212;DHT22;48849;48.758;9.158;2023-03-05T05:47:58;6.70;99.90
2212;DHT22;48849;48.758;9.158;2023-03-05T05:50:25;6.70;99.90
2212;DHT22;48849;48.758;9.158;2023-03-05T05:52:52;6.70;99.90
2212;DHT22;48849;48.758;9.158;2023-03-05T05:55:18;6.70;99.90
2212;DHT22;48849;48.758;9.158;2023-03-05T05:57:45;6.70;99.90
2212;DHT22;48849;48.758;9.158;2023-03-05T06:00:13;6.70;99.90
2212;DHT22;48849;48.758;9.158;2023-03-05T06:02:40;6.70;99.90
2212;DHT22;48849;48.758;9.158;2023-03-05T06:05:12;6.80;99.90
2212;DHT22;48849;48.758;9.158;2023-03-05T06:07:40;6.70;99.90
2212;DHT22;48849;48.758;9.158;2023-03-05T06:10:08;6.80;99.90
2212;DHT22;48849;48.758;9.158;2023-03-05T06:12:35;6.60;99.90
2212;DHT22;48849;48.758;9.158;2023-03-05T06:15:02;6.60;99.90
2212;DHT22;48849;48.758;9.158;2023-03-05T06:17:29;6.70;99.90
2212;DHT22;48849;48.758;9.158;2023-03-05T06:19:56;6.60;99.90
2212;DHT22;48849;48.758;9.158;2023-03-05T06:22:24;6.60;99.90
2212;DHT22;48849;48.758;9.158;2023-03-05T06:24:51;6.70;99.90
2212;DHT22;48849;48.758;9.158;2023-03-05T06:27:18;6.70;99.90
2212;DHT22;48849;48.758;9.158;2023-03-05T06:29:44;6.70;99.90
2212;DHT22;48849;48.758;9.158;2023-03-05T06:32:11;6.70;99.90
2212;DHT22;48849;48.758;9.158;2023-03-05T06:34:38;6.70;99.90
2212;DHT22;48849;48.758;9.158;2023-03-05T06:37:04;6.70;99.90
2212;DHT22;48849;48.758;9.158;2023-03-05T06:39:32;6.70;99.90
2212;DHT22;48849;48.758;9.158;2023-03-05T06:41:59;6.70;99.90
2212;DHT22;48849;48.758;9.158;2023-03-05T06:44:26;6.80;99.90
2212;DHT22;48849;48.758;9.158;2023-03-05T06:46:52;6.80;99.90
2212;DHT22;48849;48.758;9.158;2023-03-05T06:49:19;6.80;99.90
2212;DHT22;48849;48.758;9.158;2023-03-05T06:51:46;6.80;99.90
2212;DHT22;48849;48.758;9.158;2023-03-05T06:54:15;6.80;99.90
2212;DHT22;48849;48.758;9.158;2023-03-05T06:56:45;6.80;99.90
2212;DHT22;48849;48.758;9.158;2023-03-05T06:59:13;6.80;99.90
2212;DHT22;48849;48.758;9.158;2023-03-05T07:01:40;6.90;99.90
2212;DHT22;48849;48.758;9.158;2023-03-05T07:04:06;6.80;99.90
2212;DHT22;48849;48.758;9.158;2023-03-05T07:06:35;6.90;99.90
2212;DHT22;48849;48.758;9.158;2023-03-05T07:09:03;6.90;99.90
2212;DHT22;48849;48.758;9.158;2023-03-05T07:11:31;6.90;99.90
2212;DHT22;48849;48.758;9.158;2023-03-05T07:14:00;7.00;99.90
2212;DHT22;48849;48.758;9.158;2023-03-05T07:16:29;6.90;99.90
2212;DHT22;48849;48.758;9.158;2023-03-05T07:18:57;6.90;99.90
2212;DHT22;48849;48.758;9.158;2023-03-05T07:21:26;7.00;99.90
2212;DHT22;48849;48.758;9.158;2023-03-05T07:23:53;7.00;99.90
2212;DHT22;48849;48.758;9.158;2023-03-05T07:26:21;7.00;99.90
2212;DHT22;48849;48.758;9.158;2023-03-05T07:28:48;7.00;99.90
2212;DHT22;48849;48.758;9.158;2023-03-05T07:31:18;7.00;99.90
2212;DHT22;48849;48.758;9.158;2023-03-05T07:33:45;7.00;99.90
2212;DHT22;48849;48.758;9.158;2023-03-05T07:36:13;7.10;99.90
2212;DHT22;48849;48.758;9.158;2023-03-05T07:38:40;7.00;99.90
2212;DHT22;48849;48.758;9.158;2023-03-05T07:41:09;7.10;99.90
2212;DHT22;48849;48.758;9.158;2023-03-05T07:43:36;7.10;99.90
2212;DHT22;48849;48.758;9.158;2023-03-05T07:46:03;7.10;99.90
2212;DHT22;48849;48.758;9.158;2023-03-05T07:48:31;7.10;99.90
2212;DHT22;48849;48.758;9.158;2023-03-05T07:51:02;7.10;99.90
2212;DHT22;48849;48.758;9.158;2023-03-05T07:53:29;7.10;99.90
2212;DHT22;48849;48.758;9.158;2023-03-05T07:55:55;7.20;99.90
2212;DHT22;48849;48.758;9.158;2023-03-05T07:58:22;7.10;99.90
2212;DHT22;48849;48.758;9.158;2023-03-05T08:00:49;7.20;99.90
2212;DHT22;48849;48.758;9.158;2023-03-05T08:03:16;7.10;99.90
2212;DHT22;48849;48.758;9.158;2023-03-05T08:05:45;7.10;99.90
2212;DHT22;48849;48.758;9.158;2023-03-05T08:08:11;7.20;99.90
2212;DHT22;48849;48.758;9.158;2023-03-05T08:10:38;7.20;99.90
2212;DHT22;48849;48.758;9.158;2023-03-05T08:13:05;7.20;99.90
2212;DHT22;48849;48.758;9.158;2023-03-05T08:15:32;7.20;99.90
2212;DHT22;48849;48.758;9.158;2023-03-05T08:17:59;7.20;99.90
2212;DHT22;48849;48.758;9.158;2023-03-05T08:20:26;7.20;99.90
2212;DHT22;48849;48.758;9.158;2023-03-05T08:22:54;7.20;99.90
2212;DHT22;48849;48.758;9.158;2023-03-05T08:25:21;7.30;99.90
2212;DHT22;48849;48.758;9.158;2023-03-05T08:27:48;7.30;99.90
2212;DHT22;48849;48.758;9.158;2023-03-05T08:30:16;7.40;99.90
2212;DHT22;48849;48.758;9.158;2023-03-05T08:32:44;7.50;99.90
2212;DHT22;48849;48.758;9.158;2023-03-05T08:35:11;7.50;99.90
2212;DHT22;48849;48.758;9.158;2023-03-05T08:37:38;7.50;99.90
2212;DHT22;48849;48.758;9.158;2023-03-05T08:40:07;7.50;99.90
2212;DHT22;48849;48.758;9.158;2023-03-05T08:42:34;7.50;99.90
2212;DHT22;48849;48.758;9.158;2023-03-05T08:45:01;7.50;99.90
2212;DHT22;48849;48.758;9.158;2023-03-05T08:47:27;7.50;99.90
2212;DHT22;48849;48.758;9.158;2023-03-05T08:49:54;7.40;99.90
2212;DHT22;48849;48.758;9.158;2023-03-05T08:52:22;7.40;99.90
2212;DHT22;48849;48.758;9.158;2023-03-05T08:54:48;7.50;99.90
2212;DHT22;48849;48.758;9.158;2023-03-05T08:57:17;7.50;99.90
2212;DHT22;48849;48.758;9.158;2023-03-05T08:59:43;7.50;99.90
2212;DHT22;48849;48.758;9.158;2023-03-05T09:02:11;7.50;99.90
2212;DHT22;48849;48.758;9.158;2023-03-05T09:04:38;7.50;99.90
2212;DHT22;48849;48.758;9.158;2023-03-05T09:07:05;7.50;99.90
2212;DHT22;48849;48.758;9.158;2023-03-05T09:09:31;7.50;99.90
2212;DHT22;48849;48.758;9.158;2023-03-05T09:11:58;7.50;99.90
2212;DHT22;48849;48.758;9.158;2023-03-05T09:14:26;7.50;99.90
2212;DHT22;48849;48.758;9.158;2023-03-05T09:16:53;7.50;99.90
2212;DHT22;48849;48.758;9.158;2023-03-05T09:19:20;7.50;99.90
2212;DHT22;48849;48.758;9.158;2023-03-05T09:21:47;7.60;99.90
2212;DHT22;48849;48.758;9.158;2023-03-05T09:24:13;7.60;99.90
2212;DHT22;48849;48.758;9.158;2023-03-05T09:26:40;7.60;99.90
2212;DHT22;48849;48.758;9.158;2023-03-05T09:29:07;7.60;99.90
2212;DHT22;48849;48.758;9.158;2023-03-05T09:31:35;7.60;99.90
2212;DHT22;48849;48.758;9.158;2023-03-05T09:34:03;7.60;99.90
2212;DHT22;48849;48.758;9.158;2023-03-05T09:36:31;7.70;99.90
2212;DHT22;48849;48.758;9.158;2023-03-05T09:38:58;7.70;99.90
2212;DHT22;48849;48.758;9.158;2023-03-05T09:41:30;7.70;99.90
2212;DHT22;48849;48.758;9.158;2023-03-05T09:44:10;7.70;99.90
2212;DHT22;48849;48.758;9.158;2023-03-05T09:46:48;7.70;99.90
2212;DHT22;48849;48.758;9.158;2023-03-05T09:49:23;7.70;99.90
2212;DHT22;48849;48.758;9.158;2023-03-05T09:52:00;7.70;99.90
2212;DHT22;48849;48.758;9.158;2023-03-05T09:54:34;7.70;99.90
2212;DHT22;48849;48.758;9.158;2023-03-05T09:57:04;7.70;99.90
2212;DHT22;48849;48.758;9.158;2023-03-05T09:59:43;7.70;99.90
2212;DHT22;48849;48.758;9.158;2023-03-05T10:02:17;7.70;99.90
2212;DHT22;48849;48.758;9.158;2023-03-05T10:04:48;7.70;99.90
2212;DHT22;48849;48.758;9.158;2023-03-05T10:07:21;7.70;99.90
2212;DHT22;48849;48.758;9.158;2023-03-05T10:09:54;7.80;99.90
2212;DHT22;48849;48.758;9.158;2023-03-05T10:12:26;7.80;99.90
2212;DHT22;48849;48.758;9.158;2023-03-05T10:14:58;7.80;99.90
2212;DHT22;48849;48.758;9.158;2023-03-05T10:17:52;7.80;99.90
2212;DHT22;48849;48.758;9.158;2023-03-05T10:23:20;7.80;99.90
2212;DHT22;48849;48.758;9.158;2023-03-05T10:25:55;7.90;99.90
2212;DHT22;48849;48.758;9.158;2023-03-05T10:28:28;7.90;99.90
2212;DHT22;48849;48.758;9.158;2023-03-05T10:31:07;7.90;99.90
2212;DHT22;48849;48.758;9.158;2023-03-05T10:33:44;7.90;99.90
2212;DHT22;48849;48.758;9.158;2023-03-05T10:36:26;7.90;99.90
2212;DHT22;48849;48.758;9.158;2023-03-05T10:39:32;7.90;99.90
2212;DHT22;48849;48.758;9.158;2023-03-05T10:42:10;8.00;99.90
2212;DHT22;48849;48.758;9.158;2023-03-05T10:44:43;7.10;99.90
2212;DHT22;48849;48.758;9.158;2023-03-05T10:47:14;8.00;99.90
2212;DHT22;48849;48.758;9.158;2023-03-05T10:49:49;8.00;99.90
2212;DHT22;48849;48.758;9.158;2023-03-05T10:52:17;8.00;99.90
2212;DHT22;48849;48.758;9.158;2023-03-05T10:54:46;8.00;99.90
2212;DHT22;48849;48.758;9.158;2023-03-05T10:57:17;8.00;99.90
2212;DHT22;48849;48.758;9.158;2023-03-05T10:59:48;8.10;99.90
2212;DHT22;48849;48.758;9.158;2023-03-05T11:02:16;8.00;99.90
2212;DHT22;48849;48.758;9.158;2023-03-05T11:04:44;8.00;99.90
2212;DHT22;48849;48.758;9.158;2023-03-05T11:07:32;8.00;99.90
2212;DHT22;48849;48.758;9.158;2023-03-05T11:10:08;8.10;99.90
2212;DHT22;48849;48.758;9.158;2023-03-05T11:12:39;8.00;99.90
2212;DHT22;48849;48.758;9.158;2023-03-05T11:15:23;8.00;99.90
2212;DHT22;48849;48.758;9.158;2023-03-05T11:18:18;8.00;99.90
2212;DHT22;48849;48.758;9.158;2023-03-05T11:20:47;8.10;99.90
2212;DHT22;48849;48.758;9.158;2023-03-05T11:23:15;8.10;99.90
2212;DHT22;48849;48.758;9.158;2023-03-05T11:25:57;8.20;99.90
2212;DHT22;48849;48.758;9.158;2023-03-05T11:28:28;8.20;99.90
2212;DHT22;48849;48.758;9.158;2023-03-05T11:30:58;8.20;99.90
2212;DHT22;48849;48.758;9.158;2023-03-05T11:33:26;8.10;99.90
2212;DHT22;48849;48.758;9.158;2023-03-05T11:36:19;8.10;99.90
2212;DHT22;48849;48.758;9.158;2023-03-05T11:38:51;8.10;99.90
2212;DHT22;48849;48.758;9.158;2023-03-05T11:41:21;8.10;99.90
2212;DHT22;48849;48.758;9.158;2023-03-05T11:43:51;8.10;99.90
2212;DHT22;48849;48.758;9.158;2023-03-05T11:46:20;8.10;99.90
2212;DHT22;48849;48.758;9.158;2023-03-05T11:48:47;8.10;99.90
2212;DHT22;48849;48.758;9.158;2023-03-05T11:51:19;8.10;99.90
2212;DHT22;48849;48.758;9.158;2023-03-05T11:53:49;8.10;99.90
2212;DHT22;48849;48.758;9.158;2023-03-05T11:56:20;8.10;99.90
2212;DHT22;48849;48.758;9.158;2023-03-05T11:58:53;8.10;99.90
2212;DHT22;48849;48.758;9.158;2023-03-05T12:01:25;8.10;99.90
2212;DHT22;48849;48.758;9.158;2023-03-05T12:03:53;8.00;99.90
2212;DHT22;48849;48.758;9.158;2023-03-05T12:06:27;8.00;99.90
2212;DHT22;48849;48.758;9.158;2023-03-05T12:08:55;8.10;99.90
2212;DHT22;48849;48.758;9.158;2023-03-05T12:11:25;8.00;99.90
2212;DHT22;48849;48.758;9.158;2023-03-05T12:13:55;8.00;99.90
2212;DHT22;48849;48.758;9.158;2023-03-05T12:16:27;8.00;99.90
2212;DHT22;48849;48.758;9.158;2023-03-05T12:19:07;8.10;99.90
2212;DHT22;48849;48.758;9.158;2023-03-05T12:21:39;8.00;99.90
2212;DHT22;48849;48.758;9.158;2023-03-05T12:24:34;8.00;99.90
2212;DHT22;48849;48.758;9.158;2023-03-05T12:27:11;8.00;99.90
2212;DHT22;48849;48.758;9.158;2023-03-05T12:29:47;8.00;99.90
2212;DHT22;48849;48.758;9.158;2023-03-05T12:35:33;8.10;99.90
2212;DHT22;48849;48.758;9.158;2023-03-05T12:38:19;8.00;99.90
2212;DHT22;48849;48.758;9.158;2023-03-05T12:44:19;8.00;99.90
2212;DHT22;48849;48.758;9.158;2023-03-05T12:47:15;8.00;99.90
2212;DHT22;48849;48.758;9.158;2023-03-05T12:49:44;8.00;99.90
2212;DHT22;48849;48.758;9.158;2023-03-05T12:52:20;8.00;99.90
2212;DHT22;48849;48.758;9.158;2023-03-05T12:54:56;8.00;99.90
2212;DHT22;48849;48.758;9.158;2023-03-05T12:57:26;8.00;99.90
2212;DHT22;48849;48.758;9.158;2023-03-05T12:59:58;8.00;99.90
2212;DHT22;48849;48.758;9.158;2023-03-05T13:02:33;8.00;99.90
2212;DHT22;48849;48.758;9.158;2023-03-05T13:05:03;8.00;99.90
2212;DHT22;48849;48.758;9.158;2023-03-05T13:07:32;8.00;99.90
2212;DHT22;48849;48.758;9.158;2023-03-05T13:10:01;8.00;99.90
2212;DHT22;48849;48.758;9.158;2023-03-05T13:12:29;8.00;99.90
2212;DHT22;48849;48.758;9.158;2023-03-05T13:15:01;8.00;99.90
2212;DHT22;48849;48.758;9.158;2023-03-05T13:17:34;8.10;99.90
2212;DHT22;48849;48.758;9.158;2023-03-05T13:20:27;8.00;99.90
2212;DHT22;48849;48.758;9.158;2023-03-05T13:26:01;8.10;99.90
2212;DHT22;48849;48.758;9.158;2023-03-05T13:28:30;8.10;99.90
2212;DHT22;48849;48.758;9.158;2023-03-05T13:30:59;8.10;99.90
2212;DHT22;48849;48.758;9.158;2023-03-05T13:33:29;8.10;99.90
2212;DHT22;48849;48.758;9.158;2023-03-05T13:35:56;8.10;99.90
2212;DHT22;48849;48.758;9.158;2023-03-05T13:38:27;8.10;99.90
2212;DHT22;48849;48.758;9.158;2023-03-05T13:41:19;8.10;99.90
2212;DHT22;48849;48.758;9.158;2023-03-05T13:43:50;8.10;99.90
2212;DHT22;48849;48.758;9.158;2023-03-05T13:46:29;8.10;99.90
2212;DHT22;48849;48.758;9.158;2023-03-05T13:48:57;8.10;99.90
2212;DHT22;48849;48.758;9.158;2023-03-05T13:51:42;8.10;99.90
2212;DHT22;48849;48.758;9.158;2023-03-05T13:54:12;8.10;99.90
2212;DHT22;48849;48.758;9.158;2023-03-05T13:56:53;8.10;99.90
2212;DHT22;48849;48.758;9.158;2023-03-05T13:59:21;8.10;99.90
2212;DHT22;48849;48.758;9.158;2023-03-05T14:01:48;8.10;99.90
2212;DHT22;48849;48.758;9.158;2023-03-05T14:04:21;8.10;99.90
2212;DHT22;48849;48.758;9.158;2023-03-05T14:06:51;8.10;99.90
2212;DHT22;48849;48.758;9.158;2023-03-05T14:09:21;8.20;99.90
2212;DHT22;48849;48.758;9.158;2023-03-05T14:11:54;8.20;99.90
2212;DHT22;48849;48.758;9.158;2023-03-05T14:14:22;8.20;99.90
2212;DHT22;48849;48.758;9.158;2023-03-05T14:16:50;8.20;99.90
2212;DHT22;48849;48.758;9.158;2023-03-05T14:19:32;8.20;99.90
2212;DHT22;48849;48.758;9.158;2023-03-05T14:21:59;8.20;99.90
2212;DHT22;48849;48.758;9.158;2023-03-05T14:24:27;8.20;99.90
2212;DHT22;48849;48.758;9.158;2023-03-05T14:26:58;8.20;99.90
2212;DHT22;48849;48.758;9.158;2023-03-05T14:29:27;8.20;99.90
2212;DHT22;48849;48.758;9.158;2023-03-05T14:31:58;8.20;99.90
2212;DHT22;48849;48.758;9.158;2023-03-05T14:34:28;8.20;99.90
2212;DHT22;48849;48.758;9.158;2023-03-05T14:36:59;8.20;99.90
2212;DHT22;48849;48.758;9.158;2023-03-05T14:39:37;8.20;99.90
2212;DHT22;48849;48.758;9.158;2023-03-05T14:42:26;8.20;99.90
2212;DHT22;48849;48.758;9.158;2023-03-05T14:44:54;8.20;99.90
2212;DHT22;48849;48.758;9.158;2023-03-05T14:47:22;8.20;99.90
2212;DHT22;48849;48.758;9.158;2023-03-05T14:49:48;8.10;99.90
2212;DHT22;48849;48.758;9.158;2023-03-05T14:52:16;8.20;99.90
2212;DHT22;48849;48.758;9.158;2023-03-05T14:54:43;8.10;99.90
2212;DHT22;48849;48.758;9.158;2023-03-05T14:57:14;8.10;99.90
2212;DHT22;48849;48.758;9.158;2023-03-05T14:59:43;8.70;99.90
2212;DHT22;48849;48.758;9.158;2023-03-05T15:02:14;8.10;99.90
2212;DHT22;48849;48.758;9.158;2023-03-05T15:04:41;8.10;99.90
2212;DHT22;48849;48.758;9.158;2023-03-05T15:07:15;8.10;99.90
2212;DHT22;48849;48.758;9.158;2023-03-05T15:09:42;8.10;99.90
2212;DHT22;48849;48.758;9.158;2023-03-05T15:12:10;8.10;99.90
2212;DHT22;48849;48.758;9.158;2023-03-05T15:14:37;8.10;99.90
2212;DHT22;48849;48.758;9.158;2023-03-05T15:17:08;8.10;99.90
2212;DHT22;48849;48.758;9.158;2023-03-05T15:19:35;8.00;99.90
2212;DHT22;48849;48.758;9.158;2023-03-05T15:22:02;8.00;99.90
2212;DHT22;48849;48.758;9.158;2023-03-05T15:24:29;8.00;99.90
2212;DHT22;48849;48.758;9.158;2023-03-05T15:26:55;8.00;99.90
2212;DHT22;48849;48.758;9.158;2023-03-05T15:29:22;8.00;99.90
2212;DHT22;48849;48.758;9.158;2023-03-05T15:31:51;8.00;99.90
2212;DHT22;48849;48.758;9.158;2023-03-05T15:34:20;8.00;99.90
2212;DHT22;48849;48.758;9.158;2023-03-05T15:36:46;8.00;99.90
2212;DHT22;48849;48.758;9.158;2023-03-05T15:39:13;8.00;99.90
2212;DHT22;48849;48.758;9.158;2023-03-05T15:41:40;8.00;99.90
2212;DHT22;48849;48.758;9.158;2023-03-05T15:44:06;8.00;99.90
2212;DHT22;48849;48.758;9.158;2023-03-05T15:46:33;8.00;99.90
2212;DHT22;48849;48.758;9.158;2023-03-05T15:49:00;8.00;99.90
2212;DHT22;48849;48.758;9.158;2023-03-05T15:51:28;8.00;99.90
2212;DHT22;48849;48.758;9.158;2023-03-05T15:53:55;8.00;99.90
2212;DHT22;48849;48.758;9.158;2023-03-05T15:56:22;8.00;99.90
2212;DHT22;48849;48.758;9.158;2023-03-05T15:58:49;8.00;99.90
2212;DHT22;48849;48.758;9.158;2023-03-05T16:01:16;8.00;99.90
2212;DHT22;48849;48.758;9.158;2023-03-05T16:03:45;7.90;99.90
2212;DHT22;48849;48.758;9.158;2023-03-05T16:06:12;8.00;99.90
2212;DHT22;48849;48.758;9.158;2023-03-05T16:08:42;8.00;99.90
2212;DHT22;48849;48.758;9.158;2023-03-05T16:11:09;8.00;99.90
2212;DHT22;48849;48.758;9.158;2023-03-05T16:13:36;7.90;99.90
2212;DHT22;48849;48.758;9.158;2023-03-05T16:16:04;8.00;99.90
2212;DHT22;48849;48.758;9.158;2023-03-05T16:18:33;8.00;99.90
2212;DHT22;48849;48.758;9.158;2023-03-05T16:21:02;7.90;99.90
2212;DHT22;48849;48.758;9.158;2023-03-05T16:23:28;7.90;99.90
2212;DHT22;48849;48.758;9.158;2023-03-05T16:25:56;7.90;99.90
2212;DHT22;48849;48.758;9.158;2023-03-05T16:28:23;7.90;99.90